sensor_id;sensor_type;location;lat;lon;timestamp;pressure;altitude;pressure_sealevel;temperature
76007;BMP280;64699;0.000;0.000;2023-03-01T00:00:12;101859.34;;;15.84
76007;BMP280;64699;0.000;0.000;2023-03-01T00:02:38;101852.56;;;15.79
76007;BMP280;64699;0.000;0.000;2023-03-01T00:05:04;101861.78;;;15.82
76007;BMP280;64699;0.000;0.000;2023-03-01T00:07:30;101864.53;;;15.82
76007;BMP280;64699;0.000;0.000;2023-03-01T00:09:55;101859.72;;;15.77
76007;BMP280;64699;0.000;0.000;2023-03-01T00:12:21;101857.19;;;15.73
76007;BMP280;64699;0.000;0.000;2023-03-01T00:14:46;101856.44;;;15.73
76007;BMP280;64699;0.000;0.000;2023-03-01T00:17:12;101853.69;;;15.73
76007;BMP280;64699;0.000;0.000;2023-03-01T00:19:38;101852.75;;;15.76
76007;BMP280;64699;0.000;0.000;2023-03-01T00:22:03;101852.56;;;15.79
76007;BMP280;64699;0.000;0.000;2023-03-01T00:24:29;101851.25;;;15.75
76007;BMP280;64699;0.000;0.000;2023-03-01T00:26:55;101848.97;;;15.73
76007;BMP280;64699;0.000;0.000;2023-03-01T00:29:24;101847.28;;;15.76
76007;BMP280;64699;0.000;0.000;2023-03-01T00:31:50;101843.72;;;15.70
76007;BMP280;64699;0.000;0.000;2023-03-01T00:34:16;101848.41;;;15.69
76007;BMP280;64699;0.000;0.000;2023-03-01T00:36:41;101847.09;;;15.65
76007;BMP280;64699;0.000;0.000;2023-03-01T00:39:09;101830.47;;;15.68
76007;BMP280;64699;0.000;0.000;2023-03-01T00:41:35;101834.44;;;15.67
76007;BMP280;64699;0.000;0.000;2023-03-01T00:44:00;101837.63;;;15.66
76007;BMP280;64699;0.000;0.000;2023-03-01T00:46:26;101836.31;;;15.61
76007;BMP280;64699;0.000;0.000;2023-03-01T00:48:53;101838.59;;;15.63
76007;BMP280;64699;0.000;0.000;2023-03-01T00:51:20;101832.56;;;15.59
76007;BMP280;64699;0.000;0.000;2023-03-01T00:53:46;101829.34;;;15.60
76007;BMP280;64699;0.000;0.000;2023-03-01T00:56:13;101830.84;;;15.61
76007;BMP280;64699;0.000;0.000;2023-03-01T00:58:39;101826.09;;;15.62
76007;BMP280;64699;0.000;0.000;2023-03-01T01:01:24;101833.13;;;15.63
76007;BMP280;64699;0.000;0.000;2023-03-01T01:03:51;101825.84;;;15.60
76007;BMP280;64699;0.000;0.000;2023-03-01T01:06:18;101826.50;;;15.55
76007;BMP280;64699;0.000;0.000;2023-03-01T01:08:44;101825.28;;;15.56
76007;BMP280;64699;0.000;0.000;2023-03-01T01:11:10;101817.25;;;15.52
76007;BMP280;64699;0.000;0.000;2023-03-01T01:13:36;101821.03;;;15.55
76007;BMP280;64699;0.000;0.000;2023-03-01T01:16:02;101808.75;;;15.51
76007;BMP280;64699;0.000;0.000;2023-03-01T01:18:28;101811.28;;;15.54
76007;BMP280;64699;0.000;0.000;2023-03-01T01:20:53;101817.34;;;15.58
76007;BMP280;64699;0.000;0.000;2023-03-01T01:23:19;101817.25;;;15.52
76007;BMP280;64699;0.000;0.000;2023-03-01T01:25:44;101809.50;;;15.51
76007;BMP280;64699;0.000;0.000;2023-03-01T01:28:10;101812.06;;;15.54
76007;BMP280;64699;0.000;0.000;2023-03-01T01:30:35;101800.63;;;15.56
76007;BMP280;64699;0.000;0.000;2023-03-01T01:33:01;101804.31;;;15.53
76007;BMP280;64699;0.000;0.000;2023-03-01T01:35:27;101800.34;;;15.54
76007;BMP280;64699;0.000;0.000;2023-03-01T01:37:53;101793.84;;;15.52
76007;BMP280;64699;0.000;0.000;2023-03-01T01:40:18;101799.78;;;15.50
76007;BMP280;64699;0.000;0.000;2023-03-01T01:42:44;101790.59;;;15.53
76007;BMP280;64699;0.000;0.000;2023-03-01T01:47:54;101791.56;;;15.50
76007;BMP280;64699;0.000;0.000;2023-03-01T01:50:20;101784.59;;;15.49
76007;BMP280;64699;0.000;0.000;2023-03-01T01:52:47;101773.63;;;15.49
76007;BMP280;64699;0.000;0.000;2023-03-01T01:55:14;101772.59;;;15.47
76007;BMP280;64699;0.000;0.000;2023-03-01T01:57:45;101771.06;;;15.46
76007;BMP280;64699;0.000;0.000;2023-03-01T02:00:18;101772.88;;;15.49
76007;BMP280;64699;0.000;0.000;2023-03-01T02:02:44;101773.63;;;15.49
76007;BMP280;64699;0.000;0.000;2023-03-01T02:05:14;101772.13;;;15.48
76007;BMP280;64699;0.000;0.000;2023-03-01T02:07:41;101772.13;;;15.48
76007;BMP280;64699;0.000;0.000;2023-03-01T02:10:07;101774.56;;;15.46
76007;BMP280;64699;0.000;0.000;2023-03-01T02:12:33;101774.88;;;15.48
76007;BMP280;64699;0.000;0.000;2023-03-01T02:14:59;101773.88;;;15.51
76007;BMP280;64699;0.000;0.000;2023-03-01T02:17:24;101775.88;;;15.51
76007;BMP280;64699;0.000;0.000;2023-03-01T02:22:25;101778.84;;;15.47
76007;BMP280;64699;0.000;0.000;2023-03-01T02:24:56;101770.13;;;15.49
76007;BMP280;64699;0.000;0.000;2023-03-01T02:27:26;101769.38;;;15.48
76007;BMP280;64699;0.000;0.000;2023-03-01T02:29:54;101765.78;;;15.42
76007;BMP280;64699;0.000;0.000;2023-03-01T02:32:19;101758.81;;;15.41
76007;BMP280;64699;0.000;0.000;2023-03-01T02:34:54;101760.78;;;15.41
76007;BMP280;64699;0.000;0.000;2023-03-01T02:37:20;101754.06;;;15.42
76007;BMP280;64699;0.000;0.000;2023-03-01T02:39:50;101753.31;;;15.41
76007;BMP280;64699;0.000;0.000;2023-03-01T02:42:21;101750.59;;;15.41
76007;BMP280;64699;0.000;0.000;2023-03-01T02:44:48;101752.09;;;15.42
76007;BMP280;64699;0.000;0.000;2023-03-01T02:47:14;101749.81;;;15.41
76007;BMP280;64699;0.000;0.000;2023-03-01T02:49:40;101750.31;;;15.39
76007;BMP280;64699;0.000;0.000;2023-03-01T02:54:41;101744.84;;;15.39
76007;BMP280;64699;0.000;0.000;2023-03-01T02:57:09;101760.03;;;15.40
76007;BMP280;64699;0.000;0.000;2023-03-01T02:59:35;101751.81;;;15.40
76007;BMP280;64699;0.000;0.000;2023-03-01T03:02:24;101746.06;;;15.38
76007;BMP280;64699;0.000;0.000;2023-03-01T03:05:04;101745.31;;;15.38
76007;BMP280;64699;0.000;0.000;2023-03-01T03:07:32;101729.34;;;15.36
76007;BMP280;64699;0.000;0.000;2023-03-01T03:09:58;101728.13;;;15.37
76007;BMP280;64699;0.000;0.000;2023-03-01T03:12:23;101722.63;;;15.37
76007;BMP280;64699;0.000;0.000;2023-03-01T03:14:49;101722.63;;;15.37
76007;BMP280;64699;0.000;0.000;2023-03-01T03:17:14;101720.38;;;15.36
76007;BMP280;64699;0.000;0.000;2023-03-01T03:19:40;101716.63;;;15.33
76007;BMP280;64699;0.000;0.000;2023-03-01T03:22:05;101702.94;;;15.33
76007;BMP280;64699;0.000;0.000;2023-03-01T03:24:31;101703.38;;;15.32
76007;BMP280;64699;0.000;0.000;2023-03-01T03:27:06;101706.13;;;15.32
76007;BMP280;64699;0.000;0.000;2023-03-01T03:29:32;101711.16;;;15.33
76007;BMP280;64699;0.000;0.000;2023-03-01T03:31:57;101704.16;;;15.32
76007;BMP280;64699;0.000;0.000;2023-03-01T03:34:23;101707.16;;;15.34
76007;BMP280;64699;0.000;0.000;2023-03-01T03:36:57;101705.16;;;15.35
76007;BMP280;64699;0.000;0.000;2023-03-01T03:39:25;101710.56;;;15.29
76007;BMP280;64699;0.000;0.000;2023-03-01T03:41:50;101705.38;;;15.31
76007;BMP280;64699;0.000;0.000;2023-03-01T03:44:16;101709.81;;;15.29
76007;BMP280;64699;0.000;0.000;2023-03-01T03:46:41;101703.56;;;15.28
76007;BMP280;64699;0.000;0.000;2023-03-01T03:49:06;101707.81;;;15.29
76007;BMP280;64699;0.000;0.000;2023-03-01T03:51:32;101702.34;;;15.29
76007;BMP280;64699;0.000;0.000;2023-03-01T03:53:57;101695.63;;;15.30
76007;BMP280;64699;0.000;0.000;2023-03-01T03:56:23;101685.66;;;15.27
76007;BMP280;64699;0.000;0.000;2023-03-01T03:58:51;101690.16;;;15.30
76007;BMP280;64699;0.000;0.000;2023-03-01T04:01:17;101693.00;;;15.21
76007;BMP280;64699;0.000;0.000;2023-03-01T04:03:42;101699.06;;;15.25
76007;BMP280;64699;0.000;0.000;2023-03-01T04:06:12;101699.06;;;15.25
76007;BMP280;64699;0.000;0.000;2023-03-01T04:08:38;101687.63;;;15.27
76007;BMP280;64699;0.000;0.000;2023-03-01T04:11:04;101677.16;;;15.25
76007;BMP280;64699;0.000;0.000;2023-03-01T04:13:49;101680.34;;;15.24
76007;BMP280;64699;0.000;0.000;2023-03-01T04:16:14;101676.66;;;15.27
76007;BMP280;64699;0.000;0.000;2023-03-01T04:18:40;101674.69;;;15.27
76007;BMP280;64699;0.000;0.000;2023-03-01T04:21:05;101688.09;;;15.25
76007;BMP280;64699;0.000;0.000;2023-03-01T04:23:30;101680.19;;;15.27
76007;BMP280;64699;0.000;0.000;2023-03-01T04:25:57;101680.84;;;15.22
76007;BMP280;64699;0.000;0.000;2023-03-01T04:28:30;101678.84;;;15.23
76007;BMP280;64699;0.000;0.000;2023-03-01T04:31:01;101679.59;;;15.23
76007;BMP280;64699;0.000;0.000;2023-03-01T04:33:30;101679.03;;;15.19
76007;BMP280;64699;0.000;0.000;2023-03-01T04:35:55;101675.84;;;15.21
76007;BMP280;64699;0.000;0.000;2023-03-01T04:38:22;101678.09;;;15.22
76007;BMP280;64699;0.000;0.000;2023-03-01T04:40:48;101668.38;;;15.21
76007;BMP280;64699;0.000;0.000;2023-03-01T04:43:13;101663.06;;;15.18
76007;BMP280;64699;0.000;0.000;2023-03-01T04:45:42;101659.59;;;15.17
76007;BMP280;64699;0.000;0.000;2023-03-01T04:48:08;101657.16;;;15.19
76007;BMP280;64699;0.000;0.000;2023-03-01T04:50:33;101652.78;;;15.27
76007;BMP280;64699;0.000;0.000;2023-03-01T04:53:00;101655.25;;;15.25
76007;BMP280;64699;0.000;0.000;2023-03-01T04:55:26;101661.25;;;15.29
76007;BMP280;64699;0.000;0.000;2023-03-01T04:57:52;101647.13;;;15.31
76007;BMP280;64699;0.000;0.000;2023-03-01T05:00:18;101657.50;;;15.27
76007;BMP280;64699;0.000;0.000;2023-03-01T05:02:57;101656.38;;;15.33
76007;BMP280;64699;0.000;0.000;2023-03-01T05:05:24;101656.38;;;15.33
76007;BMP280;64699;0.000;0.000;2023-03-01T05:07:51;101653.91;;;15.35
76007;BMP280;64699;0.000;0.000;2023-03-01T05:10:17;101659.66;;;15.37
76007;BMP280;64699;0.000;0.000;2023-03-01T05:12:42;101658.44;;;15.38
76007;BMP280;64699;0.000;0.000;2023-03-01T05:15:08;101670.41;;;15.41
76007;BMP280;64699;0.000;0.000;2023-03-01T05:17:33;101676.66;;;15.41
76007;BMP280;64699;0.000;0.000;2023-03-01T05:19:59;101675.41;;;15.42
76007;BMP280;64699;0.000;0.000;2023-03-01T05:22:32;101672.41;;;15.40
76007;BMP280;64699;0.000;0.000;2023-03-01T05:24:57;101675.13;;;15.40
76007;BMP280;64699;0.000;0.000;2023-03-01T05:27:23;101677.88;;;15.40
76007;BMP280;64699;0.000;0.000;2023-03-01T05:30:07;101681.34;;;15.41
76007;BMP280;64699;0.000;0.000;2023-03-01T05:32:43;101676.38;;;15.39
76007;BMP280;64699;0.000;0.000;2023-03-01T05:35:09;101683.16;;;15.44
76007;BMP280;64699;0.000;0.000;2023-03-01T05:37:39;101692.59;;;15.43
76007;BMP280;64699;0.000;0.000;2023-03-01T05:40:04;101698.06;;;15.43
76007;BMP280;64699;0.000;0.000;2023-03-01T05:42:30;101700.31;;;15.44
76007;BMP280;64699;0.000;0.000;2023-03-01T05:44:55;101701.28;;;15.41
76007;BMP280;64699;0.000;0.000;2023-03-01T05:47:21;101698.34;;;15.45
76007;BMP280;64699;0.000;0.000;2023-03-01T05:49:47;101689.84;;;15.43
76007;BMP280;64699;0.000;0.000;2023-03-01T05:52:14;101690.41;;;15.47
76007;BMP280;64699;0.000;0.000;2023-03-01T05:54:39;101697.88;;;15.46
76007;BMP280;64699;0.000;0.000;2023-03-01T05:57:05;101697.88;;;15.46
76007;BMP280;64699;0.000;0.000;2023-03-01T05:59:30;101693.94;;;15.47
76007;BMP280;64699;0.000;0.000;2023-03-01T06:01:56;101699.41;;;15.47
76007;BMP280;64699;0.000;0.000;2023-03-01T06:04:21;101699.69;;;15.49
76007;BMP280;64699;0.000;0.000;2023-03-01T06:06:47;101694.22;;;15.49
76007;BMP280;64699;0.000;0.000;2023-03-01T06:09:12;101697.41;;;15.48
76007;BMP280;64699;0.000;0.000;2023-03-01T06:11:37;101702.41;;;15.49
76007;BMP280;64699;0.000;0.000;2023-03-01T06:14:09;101694.47;;;15.51
76007;BMP280;64699;0.000;0.000;2023-03-01T06:16:35;101694.47;;;15.51
76007;BMP280;64699;0.000;0.000;2023-03-01T06:19:01;101693.22;;;15.52
76007;BMP280;64699;0.000;0.000;2023-03-01T06:21:26;101688.97;;;15.51
76007;BMP280;64699;0.000;0.000;2023-03-01T06:23:51;101689.25;;;15.53
76007;BMP280;64699;0.000;0.000;2023-03-01T06:26:17;101694.28;;;15.54
76007;BMP280;64699;0.000;0.000;2023-03-01T06:28:42;101698.03;;;15.57
76007;BMP280;64699;0.000;0.000;2023-03-01T06:31:11;101701.53;;;15.57
76007;BMP280;64699;0.000;0.000;2023-03-01T06:33:36;101699.25;;;15.56
76007;BMP280;64699;0.000;0.000;2023-03-01T06:36:02;101690.28;;;15.55
76007;BMP280;64699;0.000;0.000;2023-03-01T06:38:27;101688.59;;;15.58
76007;BMP280;64699;0.000;0.000;2023-03-01T06:40:53;101691.59;;;15.60
76007;BMP280;64699;0.000;0.000;2023-03-01T06:43:19;101705.31;;;15.60
76007;BMP280;64699;0.000;0.000;2023-03-01T06:45:45;101698.03;;;15.57
76007;BMP280;64699;0.000;0.000;2023-03-01T06:48:10;101695.31;;;15.57
76007;BMP280;64699;0.000;0.000;2023-03-01T06:50:36;101695.59;;;15.59
76007;BMP280;64699;0.000;0.000;2023-03-01T06:53:03;101695.84;;;15.61
76007;BMP280;64699;0.000;0.000;2023-03-01T06:55:28;101695.59;;;15.59
76007;BMP280;64699;0.000;0.000;2023-03-01T06:57:55;101694.34;;;15.60
76007;BMP280;64699;0.000;0.000;2023-03-01T07:00:21;101698.31;;;15.59
76007;BMP280;64699;0.000;0.000;2023-03-01T07:02:47;101695.09;;;15.60
76007;BMP280;64699;0.000;0.000;2023-03-01T07:05:13;101694.34;;;15.60
76007;BMP280;64699;0.000;0.000;2023-03-01T07:07:38;101695.84;;;15.61
76007;BMP280;64699;0.000;0.000;2023-03-01T07:10:21;101690.88;;;15.59
76007;BMP280;64699;0.000;0.000;2023-03-01T07:12:47;101694.34;;;15.60
76007;BMP280;64699;0.000;0.000;2023-03-01T07:15:13;101702.81;;;15.62
76007;BMP280;64699;0.000;0.000;2023-03-01T07:20:22;101697.66;;;15.64
76007;BMP280;64699;0.000;0.000;2023-03-01T07:22:53;101694.59;;;15.62
76007;BMP280;64699;0.000;0.000;2023-03-01T07:25:26;101687.91;;;15.63
76007;BMP280;64699;0.000;0.000;2023-03-01T07:27:55;101689.91;;;15.62
76007;BMP280;64699;0.000;0.000;2023-03-01T07:30:21;101689.13;;;15.62
76007;BMP280;64699;0.000;0.000;2023-03-01T07:32:46;101683.66;;;15.62
76007;BMP280;64699;0.000;0.000;2023-03-01T07:35:12;101674.69;;;15.61
76007;BMP280;64699;0.000;0.000;2023-03-01T07:37:39;101680.72;;;15.65
76007;BMP280;64699;0.000;0.000;2023-03-01T07:40:11;101673.00;;;15.64
76007;BMP280;64699;0.000;0.000;2023-03-01T07:42:44;101667.19;;;15.62
76007;BMP280;64699;0.000;0.000;2023-03-01T07:45:18;101668.44;;;15.61
76007;BMP280;64699;0.000;0.000;2023-03-01T07:47:44;101677.44;;;15.61
76007;BMP280;64699;0.000;0.000;2023-03-01T07:50:14;101678.16;;;15.62
76007;BMP280;64699;0.000;0.000;2023-03-01T07:52:41;101678.47;;;15.64
76007;BMP280;64699;0.000;0.000;2023-03-01T07:55:08;101677.25;;;15.65
76007;BMP280;64699;0.000;0.000;2023-03-01T07:57:34;101675.44;;;15.62
76007;BMP280;64699;0.000;0.000;2023-03-01T08:00:00;101672.69;;;15.62
76007;BMP280;64699;0.000;0.000;2023-03-01T08:02:25;101679.69;;;15.63
76007;BMP280;64699;0.000;0.000;2023-03-01T08:04:50;101675.44;;;15.62
76007;BMP280;64699;0.000;0.000;2023-03-01T08:07:16;101680.72;;;15.65
76007;BMP280;64699;0.000;0.000;2023-03-01T08:09:41;101676.97;;;15.63
76007;BMP280;64699;0.000;0.000;2023-03-01T08:12:07;101670.25;;;15.64
76007;BMP280;64699;0.000;0.000;2023-03-01T08:14:32;101675.44;;;15.62
76007;BMP280;64699;0.000;0.000;2023-03-01T08:16:58;101683.94;;;15.64
76007;BMP280;64699;0.000;0.000;2023-03-01T08:19:23;101691.41;;;15.63
76007;BMP280;64699;0.000;0.000;2023-03-01T08:21:49;101688.38;;;15.61
76007;BMP280;64699;0.000;0.000;2023-03-01T08:24:15;101686.88;;;15.60
76007;BMP280;64699;0.000;0.000;2023-03-01T08:26:40;101681.22;;;15.64
76007;BMP280;64699;0.000;0.000;2023-03-01T08:29:06;101680.44;;;15.63
76007;BMP280;64699;0.000;0.000;2023-03-01T08:31:36;101681.22;;;15.64
76007;BMP280;64699;0.000;0.000;2023-03-01T08:34:04;101688.19;;;15.65
76007;BMP280;64699;0.000;0.000;2023-03-01T08:36:32;101677.25;;;15.65
76007;BMP280;64699;0.000;0.000;2023-03-01T08:38:58;101671.75;;;15.65
76007;BMP280;64699;0.000;0.000;2023-03-01T08:41:24;101671.09;;;15.70
76007;BMP280;64699;0.000;0.000;2023-03-01T08:43:49;101673.53;;;15.68
76007;BMP280;64699;0.000;0.000;2023-03-01T08:46:15;101675.72;;;15.64
76007;BMP280;64699;0.000;0.000;2023-03-01T08:48:40;101675.53;;;15.67
76007;BMP280;64699;0.000;0.000;2023-03-01T08:51:13;101681.28;;;15.69
76007;BMP280;64699;0.000;0.000;2023-03-01T08:53:39;101679.00;;;15.68
76007;BMP280;64699;0.000;0.000;2023-03-01T08:56:05;101686.47;;;15.67
76007;BMP280;64699;0.000;0.000;2023-03-01T08:58:30;101681.00;;;15.67
76007;BMP280;64699;0.000;0.000;2023-03-01T09:00:56;101683.19;;;15.63
76007;BMP280;64699;0.000;0.000;2023-03-01T09:03:23;101670.78;;;15.68
76007;BMP280;64699;0.000;0.000;2023-03-01T09:05:49;101683.81;;;15.73
76007;BMP280;64699;0.000;0.000;2023-03-01T09:08:16;101681.06;;;15.73
76007;BMP280;64699;0.000;0.000;2023-03-01T09:10:41;101671.09;;;15.70
76007;BMP280;64699;0.000;0.000;2023-03-01T09:13:07;101676.81;;;15.72
76007;BMP280;64699;0.000;0.000;2023-03-01T09:15:33;101676.81;;;15.72
76007;BMP280;64699;0.000;0.000;2023-03-01T09:17:59;101670.13;;;15.73
76007;BMP280;64699;0.000;0.000;2023-03-01T09:20:25;101666.34;;;15.70
76007;BMP280;64699;0.000;0.000;2023-03-01T09:22:50;101661.59;;;15.71
76007;BMP280;64699;0.000;0.000;2023-03-01T09:25:16;101661.88;;;15.73
76007;BMP280;64699;0.000;0.000;2023-03-01T09:27:41;101652.44;;;15.74
76007;BMP280;64699;0.000;0.000;2023-03-01T09:30:07;101649.69;;;15.74
76007;BMP280;64699;0.000;0.000;2023-03-01T09:32:33;101648.19;;;15.73
76007;BMP280;64699;0.000;0.000;2023-03-01T09:34:58;101643.16;;;15.71
76007;BMP280;64699;0.000;0.000;2023-03-01T09:37:29;101649.41;;;15.72
76007;BMP280;64699;0.000;0.000;2023-03-01T09:39:55;101654.41;;;15.73
76007;BMP280;64699;0.000;0.000;2023-03-01T09:42:21;101655.19;;;15.74
76007;BMP280;64699;0.000;0.000;2023-03-01T09:47:17;101649.41;;;15.72
76007;BMP280;64699;0.000;0.000;2023-03-01T09:49:43;101644.88;;;15.69
76007;BMP280;64699;0.000;0.000;2023-03-01T09:52:33;101649.84;;;15.65
76007;BMP280;64699;0.000;0.000;2023-03-01T09:55:26;101650.09;;;15.67
76007;BMP280;64699;0.000;0.000;2023-03-01T09:57:55;101651.31;;;15.66
76007;BMP280;64699;0.000;0.000;2023-03-01T10:00:33;101642.63;;;15.67
76007;BMP280;64699;0.000;0.000;2023-03-01T10:10:56;101637.63;;;15.66
76007;BMP280;64699;0.000;0.000;2023-03-01T10:16:01;101621.69;;;15.64
76007;BMP280;64699;0.000;0.000;2023-03-01T10:18:29;101617.91;;;15.62
76007;BMP280;64699;0.000;0.000;2023-03-01T10:20:59;101611.22;;;15.63
76007;BMP280;64699;0.000;0.000;2023-03-01T10:23:26;101603.00;;;15.63
76007;BMP280;64699;0.000;0.000;2023-03-01T10:28:35;101607.25;;;15.64
76007;BMP280;64699;0.000;0.000;2023-03-01T10:31:08;101601.75;;;15.64
76007;BMP280;64699;0.000;0.000;2023-03-01T10:33:37;101604.19;;;15.62
76007;BMP280;64699;0.000;0.000;2023-03-01T10:36:05;101607.50;;;15.66
76007;BMP280;64699;0.000;0.000;2023-03-01T10:38:33;101599.03;;;15.64
76007;BMP280;64699;0.000;0.000;2023-03-01T10:41:12;101595.97;;;15.62
76007;BMP280;64699;0.000;0.000;2023-03-01T10:43:45;101595.06;;;15.65
76007;BMP280;64699;0.000;0.000;2023-03-01T10:49:05;101588.59;;;15.68
76007;BMP280;64699;0.000;0.000;2023-03-01T10:51:31;101593.31;;;15.67
76007;BMP280;64699;0.000;0.000;2023-03-01T10:53:57;101593.78;;;15.66
76007;BMP280;64699;0.000;0.000;2023-03-01T10:56:23;101585.31;;;15.64
76007;BMP280;64699;0.000;0.000;2023-03-01T11:03:55;101575.28;;;15.61
76007;BMP280;64699;0.000;0.000;2023-03-01T11:06:28;101582.03;;;15.60
76007;BMP280;64699;0.000;0.000;2023-03-01T11:08:53;101589.75;;;15.61
76007;BMP280;64699;0.000;0.000;2023-03-01T11:11:23;101592.38;;;15.70
76007;BMP280;64699;0.000;0.000;2023-03-01T11:13:58;101580.78;;;15.81
76007;BMP280;64699;0.000;0.000;2023-03-01T11:16:24;101581.31;;;15.85
76007;BMP280;64699;0.000;0.000;2023-03-01T11:18:58;101582.63;;;15.89
76007;BMP280;64699;0.000;0.000;2023-03-01T11:21:24;101575.84;;;15.85
76007;BMP280;64699;0.000;0.000;2023-03-01T11:23:51;101574.31;;;15.84
76007;BMP280;64699;0.000;0.000;2023-03-01T11:26:17;101566.72;;;15.93
76007;BMP280;64699;0.000;0.000;2023-03-01T11:28:43;101566.75;;;15.99
76007;BMP280;64699;0.000;0.000;2023-03-01T11:31:14;101564.66;;;15.88
76007;BMP280;64699;0.000;0.000;2023-03-01T11:39:12;101555.03;;;15.73
76007;BMP280;64699;0.000;0.000;2023-03-01T11:41:41;101558.03;;;15.75
76007;BMP280;64699;0.000;0.000;2023-03-01T11:59:45;101556.56;;;15.99
76007;BMP280;64699;0.000;0.000;2023-03-01T12:05:01;101562.00;;;15.94
76007;BMP280;64699;0.000;0.000;2023-03-01T12:17:47;101561.56;;;15.75
76007;BMP280;64699;0.000;0.000;2023-03-01T12:28:31;101544.78;;;16.49
76007;BMP280;64699;0.000;0.000;2023-03-01T12:38:45;101529.78;;;15.89
76007;BMP280;64699;0.000;0.000;2023-03-01T12:41:18;101535.31;;;15.94
76007;BMP280;64699;0.000;0.000;2023-03-01T12:49:07;101528.13;;;15.97
76007;BMP280;64699;0.000;0.000;2023-03-01T12:51:34;101530.19;;;15.82
76007;BMP280;64699;0.000;0.000;2023-03-01T12:54:02;101525.16;;;15.75
76007;BMP280;64699;0.000;0.000;2023-03-01T12:56:32;101525.41;;;15.77
76007;BMP280;64699;0.000;0.000;2023-03-01T12:59:18;101518.88;;;15.69
76007;BMP280;64699;0.000;0.000;2023-03-01T13:01:52;101521.09;;;15.65
76007;BMP280;64699;0.000;0.000;2023-03-01T13:15:01;101518.34;;;15.65
76007;BMP280;64699;0.000;0.000;2023-03-01T13:17:39;101507.63;;;15.67
76007;BMP280;64699;0.000;0.000;2023-03-01T13:20:11;101513.09;;;15.67
76007;BMP280;64699;0.000;0.000;2023-03-01T13:22:47;101508.91;;;15.71
76007;BMP280;64699;0.000;0.000;2023-03-01T13:25:17;101498.66;;;15.66
76007;BMP280;64699;0.000;0.000;2023-03-01T13:27:44;101507.63;;;15.67
76007;BMP280;64699;0.000;0.000;2023-03-01T13:30:56;101498.94;;;15.68
76007;BMP280;64699;0.000;0.000;2023-03-01T13:35:43;101488.44;;;15.67
76007;BMP280;64699;0.000;0.000;2023-03-01T13:43:28;101480.47;;;15.63
76007;BMP280;64699;0.000;0.000;2023-03-01T13:45:54;101486.00;;;15.69
76007;BMP280;64699;0.000;0.000;2023-03-01T13:48:23;101480.09;;;15.76
76007;BMP280;64699;0.000;0.000;2023-03-01T13:51:00;101475.56;;;15.73
76007;BMP280;64699;0.000;0.000;2023-03-01T13:53:29;101477.31;;;15.70
76007;BMP280;64699;0.000;0.000;2023-03-01T13:55:55;101479.41;;;15.81
76007;BMP280;64699;0.000;0.000;2023-03-01T13:58:24;101471.59;;;15.74
76007;BMP280;64699;0.000;0.000;2023-03-01T14:01:03;101481.00;;;15.67
76007;BMP280;64699;0.000;0.000;2023-03-01T14:03:30;101467.78;;;15.66
76007;BMP280;64699;0.000;0.000;2023-03-01T14:06:04;101467.53;;;15.64
76007;BMP280;64699;0.000;0.000;2023-03-01T14:08:33;101479.50;;;15.66
76007;BMP280;64699;0.000;0.000;2023-03-01T14:13:40;101462.97;;;15.61
76007;BMP280;64699;0.000;0.000;2023-03-01T14:18:56;101467.94;;;15.57
76007;BMP280;64699;0.000;0.000;2023-03-01T14:21:26;101471.16;;;15.55
76007;BMP280;64699;0.000;0.000;2023-03-01T14:23:52;101462.94;;;15.55
76007;BMP280;64699;0.000;0.000;2023-03-01T14:26:21;101465.66;;;15.55
76007;BMP280;64699;0.000;0.000;2023-03-01T14:28:47;101464.94;;;15.55
76007;BMP280;64699;0.000;0.000;2023-03-01T14:37:30;101460.41;;;15.52
76007;BMP280;64699;0.000;0.000;2023-03-01T14:40:23;101443.75;;;15.55
76007;BMP280;64699;0.000;0.000;2023-03-01T14:42:58;101440.78;;;15.53
76007;BMP280;64699;0.000;0.000;2023-03-01T14:45:25;101437.53;;;15.55
76007;BMP280;64699;0.000;0.000;2023-03-01T14:47:51;101439.59;;;15.60
76007;BMP280;64699;0.000;0.000;2023-03-01T14:50:33;101414.03;;;15.43
76007;BMP280;64699;0.000;0.000;2023-03-01T14:53:02;101438.78;;;15.54
76007;BMP280;64699;0.000;0.000;2023-03-01T14:55:33;101433.03;;;15.52
76007;BMP280;64699;0.000;0.000;2023-03-01T14:57:59;101436.53;;;15.52
76007;BMP280;64699;0.000;0.000;2023-03-01T15:00:29;101434.53;;;15.53
76007;BMP280;64699;0.000;0.000;2023-03-01T15:02:55;101428.78;;;15.51
76007;BMP280;64699;0.000;0.000;2023-03-01T15:05:29;101433.25;;;15.49
76007;BMP280;64699;0.000;0.000;2023-03-01T15:07:55;101427.03;;;15.48
76007;BMP280;64699;0.000;0.000;2023-03-01T15:10:24;101429.00;;;15.48
76007;BMP280;64699;0.000;0.000;2023-03-01T15:12:49;101420.31;;;15.49
76007;BMP280;64699;0.000;0.000;2023-03-01T15:15:30;101422.28;;;15.49
76007;BMP280;64699;0.000;0.000;2023-03-01T15:17:59;101426.72;;;15.46
76007;BMP280;64699;0.000;0.000;2023-03-01T15:20:28;101426.72;;;15.46
76007;BMP280;64699;0.000;0.000;2023-03-01T15:23:02;101418.00;;;15.42
76007;BMP280;64699;0.000;0.000;2023-03-01T15:25:32;101423.25;;;15.46
76007;BMP280;64699;0.000;0.000;2023-03-01T15:27:58;101416.75;;;15.43
76007;BMP280;64699;0.000;0.000;2023-03-01T15:30:26;101420.97;;;15.44
76007;BMP280;64699;0.000;0.000;2023-03-01T15:35:45;101412.50;;;15.42
76007;BMP280;64699;0.000;0.000;2023-03-01T15:40:54;101418.22;;;15.44
76007;BMP280;64699;0.000;0.000;2023-03-01T15:43:39;101418.50;;;15.46
76007;BMP280;64699;0.000;0.000;2023-03-01T15:46:05;101420.03;;;15.47
76007;BMP280;64699;0.000;0.000;2023-03-01T15:51:27;101417.78;;;15.46
76007;BMP280;64699;0.000;0.000;2023-03-01T15:53:53;101418.81;;;15.48
76007;BMP280;64699;0.000;0.000;2023-03-01T15:56:19;101409.81;;;15.48
76007;BMP280;64699;0.000;0.000;2023-03-01T15:58:44;101406.81;;;15.46
76007;BMP280;64699;0.000;0.000;2023-03-01T16:01:15;101407.56;;;15.46
76007;BMP280;64699;0.000;0.000;2023-03-01T16:03:42;101404.34;;;15.48
76007;BMP280;64699;0.000;0.000;2023-03-01T16:06:11;101403.84;;;15.44
76007;BMP280;64699;0.000;0.000;2023-03-01T16:08:37;101416.06;;;15.48
76007;BMP280;64699;0.000;0.000;2023-03-01T16:11:04;101415.31;;;15.48
76007;BMP280;64699;0.000;0.000;2023-03-01T16:13:31;101415.84;;;15.52
76007;BMP280;64699;0.000;0.000;2023-03-01T16:15:57;101411.81;;;15.47
76007;BMP280;64699;0.000;0.000;2023-03-01T16:18:22;101414.56;;;15.47
76007;BMP280;64699;0.000;0.000;2023-03-01T16:20:48;101416.81;;;15.49